createdAt,value
2024-01-11T00:00:42.368Z,22.63
2024-01-11T00:01:52.035Z,23.30
2024-01-11T00:02:58.952Z,24.92
2024-01-11T00:04:04.460Z,26.63
2024-01-11T00:05:12.164Z,26.27
2024-01-11T00:06:17.828Z,25.38
2024-01-11T00:07:24.653Z,25.92
2024-01-11T00:08:30.130Z,27.25
2024-01-11T00:09:36.888Z,28.65
2024-01-11T00:10:42.196Z,27.42
2024-01-11T00:11:48.954Z,27.65
2024-01-11T00:12:54.440Z,27.27
2024-01-11T00:14:01.145Z,27.90
2024-01-11T00:15:06.932Z,24.30
2024-01-11T00:16:13.756Z,22.55
2024-01-11T00:17:21.214Z,22.50
2024-01-11T00:18:28.180Z,23.15
2024-01-11T00:19:34.339Z,23.25
2024-01-11T00:20:41.160Z,22.40
2024-01-11T00:21:46.588Z,23.30
2024-01-11T00:22:53.353Z,24.05
2024-01-11T00:23:58.866Z,23.20
2024-01-11T00:25:06.575Z,24.13
2024-01-11T00:26:12.364Z,22.37
2024-01-11T00:27:19.489Z,22.45
2024-01-11T00:28:24.880Z,22.70
2024-01-11T00:29:32.089Z,22.58
2024-01-11T00:30:37.524Z,22.77
2024-01-11T00:31:44.295Z,24.75
2024-01-11T00:32:51.656Z,24.23
2024-01-11T00:33:58.496Z,24.48
2024-01-11T00:35:03.984Z,25.60
2024-01-11T00:36:10.924Z,24.42
2024-01-11T00:37:16.340Z,24.20
2024-01-11T00:38:23.094Z,24.73
2024-01-11T00:39:28.545Z,25.33
2024-01-11T00:40:35.283Z,24.02
2024-01-11T00:41:40.809Z,23.50
2024-01-11T00:42:47.525Z,23.65
2024-01-11T00:43:53.112Z,24.27
2024-01-11T00:44:59.864Z,24.17
2024-01-11T00:46:05.301Z,25.60
2024-01-11T00:47:13.328Z,23.95
2024-01-11T00:48:20.608Z,24.60
2024-01-11T00:49:27.561Z,25.15
2024-01-11T00:50:33.427Z,25.73
2024-01-11T00:51:40.182Z,25.00
2024-01-11T00:52:45.587Z,24.80
2024-01-11T00:53:51.022Z,24.92
2024-01-11T00:54:57.728Z,23.77
2024-01-11T00:56:03.204Z,25.27
2024-01-11T00:57:10.616Z,25.45
2024-01-11T00:58:16.136Z,23.65
2024-01-11T00:59:22.945Z,23.37
2024-01-11T01:00:28.362Z,25.63
2024-01-11T01:01:35.094Z,24.08
2024-01-11T01:02:40.600Z,26.60
2024-01-11T01:03:49.345Z,28.00
2024-01-11T01:04:54.928Z,28.00
2024-01-11T01:06:01.970Z,26.38
2024-01-11T01:07:08.327Z,24.52
2024-01-11T01:08:15.106Z,26.23
2024-01-11T01:09:20.535Z,27.08
2024-01-11T01:10:27.320Z,26.70
2024-01-11T01:11:32.789Z,26.77
2024-01-11T01:12:38.153Z,27.33
2024-01-11T01:13:44.888Z,28.48
2024-01-11T01:14:50.326Z,27.42
2024-01-11T01:15:57.047Z,27.50
2024-01-11T01:17:02.521Z,26.50
2024-01-11T01:18:09.794Z,28.25
2024-01-11T01:19:17.136Z,29.42
2024-01-11T01:20:24.054Z,29.33
2024-01-11T01:21:29.479Z,29.60
2024-01-11T01:22:36.232Z,28.08
2024-01-11T01:23:41.729Z,28.88
2024-01-11T01:24:48.614Z,28.00
2024-01-11T01:25:54.215Z,27.38
2024-01-11T01:27:01.092Z,25.63
2024-01-11T01:28:06.847Z,26.70
2024-01-11T01:29:14.438Z,24.08
2024-01-11T01:30:19.999Z,25.55
2024-01-11T01:31:27.142Z,26.45
2024-01-11T01:32:33.492Z,25.13
2024-01-11T01:33:40.413Z,26.35
2024-01-11T01:34:48.781Z,25.92
2024-01-11T01:35:55.805Z,28.02
2024-01-11T01:37:01.271Z,28.15
2024-01-11T01:38:08.251Z,27.02
2024-01-11T01:39:13.597Z,28.23
2024-01-11T01:40:20.424Z,27.50
2024-01-11T01:41:25.849Z,28.95
2024-01-11T01:42:32.637Z,28.67
2024-01-11T01:43:38.055Z,29.77
2024-01-11T01:44:45.187Z,30.40
2024-01-11T01:45:51.242Z,30.13
2024-01-11T01:46:58.289Z,35.15
2024-01-11T01:48:04.125Z,36.22
2024-01-11T01:49:11.457Z,36.70
2024-01-11T01:50:18.708Z,33.13
2024-01-11T01:51:25.909Z,30.70
2024-01-11T01:52:31.613Z,29.67
2024-01-11T01:53:38.510Z,28.63
2024-01-11T01:54:44.256Z,28.53
2024-01-11T01:55:51.238Z,26.55
2024-01-11T01:56:57.342Z,26.83
2024-01-11T01:58:05.717Z,27.27
2024-01-11T01:59:11.311Z,23.42
2024-01-11T02:00:19.104Z,25.30
2024-01-11T02:01:25.610Z,23.65
2024-01-11T02:02:32.789Z,22.30
2024-01-11T02:03:40.092Z,21.70
2024-01-11T02:04:47.237Z,21.73
2024-01-11T02:05:56.187Z,21.23
2024-01-11T02:07:03.427Z,17.52
2024-01-11T02:08:11.297Z,17.25
2024-01-11T02:09:18.513Z,18.73
2024-01-11T02:10:23.956Z,14.57
2024-01-11T02:11:30.804Z,13.30
2024-01-11T02:12:36.655Z,13.05
2024-01-11T02:13:42.137Z,14.85
2024-01-11T02:14:48.844Z,13.55
2024-01-11T02:15:54.266Z,13.50
2024-01-11T02:17:01.032Z,12.83
2024-01-11T02:18:06.849Z,12.52
2024-01-11T02:19:18.989Z,11.80
2024-01-11T02:20:24.765Z,12.68
2024-01-11T02:21:33.918Z,14.13
2024-01-11T02:22:42.373Z,11.75
2024-01-11T02:23:52.386Z,11.77
2024-01-11T02:25:00.671Z,11.38
2024-01-11T02:26:07.612Z,11.73
2024-01-11T02:27:13.516Z,12.82
2024-01-11T02:28:20.163Z,11.90
2024-01-11T02:29:25.479Z,11.20
2024-01-11T02:30:32.236Z,11.10
2024-01-11T02:31:37.565Z,10.30
2024-01-11T02:32:44.711Z,12.75
2024-01-11T02:33:50.246Z,11.20
2024-01-11T02:34:57.086Z,10.95
2024-01-11T02:36:02.369Z,11.35
2024-01-11T02:37:09.866Z,11.60
2024-01-11T02:38:15.322Z,10.77
2024-01-11T02:39:21.107Z,11.60
2024-01-11T02:40:29.592Z,11.63
2024-01-11T02:41:36.088Z,12.32
2024-01-11T02:42:42.708Z,11.68
2024-01-11T02:43:51.548Z,10.60
2024-01-11T02:44:56.898Z,11.82
2024-01-11T02:46:03.588Z,12.45
2024-01-11T02:47:08.958Z,11.90
2024-01-11T02:48:15.908Z,13.25
2024-01-11T02:49:21.449Z,12.27
2024-01-11T02:50:28.104Z,12.90
2024-01-11T02:51:33.453Z,12.05
2024-01-11T02:52:40.162Z,12.63
2024-01-11T02:53:45.517Z,12.00
2024-01-11T02:54:52.272Z,12.52
2024-01-11T02:56:01.599Z,12.90
2024-01-11T02:57:10.605Z,13.07
2024-01-11T02:58:15.852Z,12.13
2024-01-11T02:59:22.525Z,11.90
2024-01-11T03:00:27.947Z,12.45
2024-01-11T03:01:35.098Z,12.20
2024-01-11T03:02:41.783Z,13.43
2024-01-11T03:03:50.718Z,12.18
2024-01-11T03:04:57.824Z,12.15
2024-01-11T03:06:04.444Z,13.27
2024-01-11T03:07:09.773Z,12.00
2024-01-11T03:08:16.700Z,11.75
2024-01-11T03:09:22.262Z,12.43
2024-01-11T03:10:29.044Z,11.32
2024-01-11T03:11:36.064Z,13.10
2024-01-11T03:12:44.274Z,12.23
2024-01-11T03:13:49.607Z,11.82
2024-01-11T03:14:56.276Z,12.27
2024-01-11T03:16:01.621Z,13.23
2024-01-11T03:17:09.130Z,12.38
2024-01-11T03:18:14.641Z,13.52
2024-01-11T03:19:21.496Z,12.10
2024-01-11T03:20:27.441Z,11.35
2024-01-11T03:21:34.150Z,11.80
2024-01-11T03:22:39.446Z,13.65
2024-01-11T03:23:44.780Z,11.50
2024-01-11T03:24:51.429Z,11.82
2024-01-11T03:25:56.799Z,11.60
2024-01-11T03:27:05.382Z,10.73
2024-01-11T03:28:11.568Z,11.23
2024-01-11T03:29:18.250Z,11.13
2024-01-11T03:30:23.618Z,11.45
2024-01-11T03:31:30.201Z,10.73
2024-01-11T03:32:35.668Z,11.70
2024-01-11T03:33:42.393Z,12.65
2024-01-11T03:34:47.809Z,11.50
2024-01-11T03:35:54.564Z,11.50
2024-01-11T03:37:00.015Z,11.60
2024-01-11T03:38:06.842Z,11.38
2024-01-11T03:39:12.191Z,11.10
2024-01-11T03:40:19.282Z,12.65
2024-01-11T03:41:24.627Z,11.93
2024-01-11T03:42:33.041Z,12.23
2024-01-11T03:43:38.378Z,15.02
2024-01-11T03:44:45.114Z,12.40
2024-01-11T03:45:50.448Z,14.77
2024-01-11T03:46:57.166Z,14.90
2024-01-11T03:48:02.488Z,14.82
2024-01-11T03:49:10.229Z,14.55
2024-01-11T03:50:15.751Z,12.57
2024-01-11T03:51:21.079Z,14.05
2024-01-11T03:52:27.754Z,13.82
2024-01-11T03:53:33.063Z,13.52
2024-01-11T03:54:39.744Z,12.77
2024-01-11T03:55:45.137Z,14.18
2024-01-11T03:56:51.842Z,14.73
2024-01-11T03:57:58.917Z,13.57
2024-01-11T03:59:05.499Z,13.15
2024-01-11T04:00:12.373Z,14.90
2024-01-11T04:01:19.081Z,14.43
2024-01-11T04:02:24.524Z,12.43
2024-01-11T04:03:31.271Z,13.65
2024-01-11T04:04:36.583Z,14.82
2024-01-11T04:05:43.681Z,16.25
2024-01-11T04:06:49.061Z,15.93
2024-01-11T04:07:55.807Z,14.67
2024-01-11T04:09:01.256Z,13.35
2024-01-11T04:10:08.461Z,16.88
2024-01-11T04:11:13.778Z,13.07
2024-01-11T04:12:20.465Z,15.00
2024-01-11T04:13:27.607Z,13.35
2024-01-11T04:14:34.340Z,14.27
2024-01-11T04:15:39.738Z,15.18
2024-01-11T04:16:47.116Z,14.50
2024-01-11T04:17:52.632Z,14.57
2024-01-11T04:18:59.480Z,15.67
2024-01-11T04:20:04.857Z,14.77
2024-01-11T04:21:11.545Z,15.13
2024-01-11T04:22:16.811Z,15.25
2024-01-11T04:23:23.799Z,15.82
2024-01-11T04:24:29.251Z,16.45
2024-01-11T04:25:35.840Z,18.23
2024-01-11T04:26:41.279Z,17.33
2024-01-11T04:27:48.018Z,24.00
2024-01-11T04:28:58.650Z,31.15
2024-01-11T04:30:08.965Z,24.70
2024-01-11T04:31:14.291Z,31.23
2024-01-11T04:32:20.954Z,31.83
2024-01-11T04:33:26.355Z,25.52
2024-01-11T04:34:33.327Z,19.30
2024-01-11T04:35:38.978Z,18.08
2024-01-11T04:36:45.612Z,17.73
2024-01-11T04:37:50.959Z,20.40
2024-01-11T04:38:56.332Z,20.67
2024-01-11T04:40:03.017Z,21.35
2024-01-11T04:41:12.585Z,22.50
2024-01-11T04:42:19.691Z,23.90
2024-01-11T04:43:24.904Z,21.05
2024-01-11T04:44:33.458Z,21.45
2024-01-11T04:45:38.859Z,16.30
2024-01-11T04:46:45.511Z,16.80
2024-01-11T04:47:50.981Z,15.40
2024-01-11T04:48:58.141Z,13.73
2024-01-11T04:50:03.550Z,17.75
2024-01-11T04:51:10.243Z,16.20
2024-01-11T04:52:15.579Z,16.40
2024-01-11T04:53:22.377Z,17.73
2024-01-11T04:54:28.756Z,13.35
2024-01-11T04:55:35.415Z,12.57
2024-01-11T04:56:40.734Z,14.88
2024-01-11T04:57:47.430Z,15.90
2024-01-11T04:58:52.840Z,14.80
2024-01-11T05:00:03.663Z,16.23
2024-01-11T05:01:09.848Z,13.50
2024-01-11T05:02:16.469Z,12.95
2024-01-11T05:03:21.892Z,11.67
2024-01-11T05:04:28.694Z,13.85
2024-01-11T05:05:34.078Z,13.27
2024-01-11T05:06:40.788Z,13.63
2024-01-11T05:07:46.118Z,11.52
2024-01-11T05:08:54.069Z,13.75
2024-01-11T05:09:59.598Z,13.18
2024-01-11T05:11:06.201Z,12.98
2024-01-11T05:12:11.860Z,13.07
2024-01-11T05:13:18.486Z,12.77
2024-01-11T05:14:23.934Z,11.33
2024-01-11T05:15:32.331Z,13.37
2024-01-11T05:16:38.492Z,11.93
2024-01-11T05:17:45.326Z,13.48
2024-01-11T05:18:50.766Z,12.77
2024-01-11T05:19:57.612Z,11.43
2024-01-11T05:21:02.999Z,13.32
2024-01-11T05:22:09.756Z,12.35
2024-01-11T05:23:15.133Z,12.73
2024-01-11T05:24:21.769Z,12.90
2024-01-11T05:25:27.077Z,12.03
2024-01-11T05:26:33.718Z,12.30
2024-01-11T05:27:39.108Z,12.60
2024-01-11T05:28:45.705Z,12.13
2024-01-11T05:29:51.070Z,12.00
2024-01-11T05:30:59.668Z,12.57
2024-01-11T05:32:05.201Z,11.63
2024-01-11T05:33:12.071Z,13.43
2024-01-11T05:34:17.692Z,12.13
2024-01-11T05:35:24.664Z,12.52
2024-01-11T05:36:30.076Z,11.80
2024-01-11T05:37:36.720Z,13.03
2024-01-11T05:38:43.255Z,12.00
2024-01-11T05:39:50.025Z,11.90
2024-01-11T05:40:55.542Z,12.63
2024-01-11T05:42:02.279Z,13.68
2024-01-11T05:43:07.747Z,11.98
2024-01-11T05:44:14.451Z,12.70
2024-01-11T05:45:22.861Z,13.35
2024-01-11T05:46:37.001Z,11.68
2024-01-11T05:47:42.561Z,13.27
2024-01-11T05:48:49.433Z,12.07
2024-01-11T05:49:54.909Z,12.63
2024-01-11T05:51:02.391Z,11.80
2024-01-11T05:52:08.376Z,13.43
2024-01-11T05:53:15.058Z,12.20
2024-01-11T05:54:20.436Z,11.85
2024-01-11T05:55:27.012Z,13.80
2024-01-11T05:56:32.360Z,11.68
2024-01-11T05:57:39.064Z,12.82
2024-01-11T05:58:44.410Z,10.60
2024-01-11T05:59:51.236Z,11.80
2024-01-11T06:00:58.119Z,11.98
2024-01-11T06:02:06.575Z,11.38
2024-01-11T06:03:11.947Z,11.48
2024-01-11T06:04:19.065Z,12.55
2024-01-11T06:05:24.542Z,10.43
2024-01-11T06:06:31.289Z,10.68
2024-01-11T06:07:36.590Z,11.15
2024-01-11T06:08:45.333Z,11.90
2024-01-11T06:09:50.710Z,11.80
2024-01-11T06:10:57.369Z,11.30
2024-01-11T06:12:02.706Z,10.00
2024-01-11T06:13:09.580Z,11.07
2024-01-11T06:14:14.974Z,11.30
2024-01-11T06:15:22.249Z,10.68
2024-01-11T06:16:27.643Z,10.65
2024-01-11T06:17:36.161Z,11.48
2024-01-11T06:18:41.956Z,10.88
2024-01-11T06:19:48.656Z,9.38
2024-01-11T06:20:53.978Z,11.20
2024-01-11T06:22:00.687Z,10.57
2024-01-11T06:23:06.167Z,9.90
2024-01-11T06:24:12.775Z,10.60
2024-01-11T06:25:18.725Z,10.02
2024-01-11T06:26:25.896Z,10.77
2024-01-11T06:27:31.301Z,11.32
2024-01-11T06:28:37.996Z,10.85
2024-01-11T06:29:43.345Z,11.32
2024-01-11T06:30:50.364Z,11.50
2024-01-11T06:31:55.885Z,11.03
2024-01-11T06:33:04.420Z,11.13
2024-01-11T06:34:09.812Z,11.15
2024-01-11T06:35:16.503Z,10.85
2024-01-11T06:36:21.874Z,11.13
2024-01-11T06:37:28.470Z,12.55
2024-01-11T06:38:33.803Z,12.52
2024-01-11T06:39:40.509Z,11.90
2024-01-11T06:40:46.190Z,12.20
2024-01-11T06:41:52.785Z,11.15
2024-01-11T06:42:58.130Z,10.57
2024-01-11T06:44:05.056Z,8.60
2024-01-11T06:45:11.500Z,9.65
2024-01-11T06:46:18.168Z,9.52
2024-01-11T06:47:23.670Z,10.27
2024-01-11T06:48:32.179Z,9.82
2024-01-11T06:49:38.335Z,10.27
2024-01-11T06:50:45.079Z,10.27
2024-01-11T06:51:50.462Z,10.18
2024-01-11T06:52:57.261Z,9.90
2024-01-11T06:54:07.222Z,11.27
2024-01-11T06:55:14.747Z,10.33
2024-01-11T06:56:20.978Z,9.88
2024-01-11T06:57:27.755Z,8.90
2024-01-11T06:58:33.032Z,9.10
2024-01-11T06:59:39.917Z,9.10
2024-01-11T07:00:46.032Z,10.05
2024-01-11T07:01:52.847Z,9.73
2024-01-11T07:02:58.225Z,10.25
2024-01-11T07:04:06.758Z,10.35
2024-01-11T07:05:12.377Z,8.83
2024-01-11T07:06:19.627Z,10.33
2024-01-11T07:07:25.290Z,9.63
2024-01-11T07:08:32.300Z,9.88
2024-01-11T07:09:37.598Z,9.10
2024-01-11T07:10:44.892Z,9.25
2024-01-11T07:11:50.252Z,9.02
2024-01-11T07:12:56.956Z,9.80
2024-01-11T07:14:02.532Z,9.27
2024-01-11T07:15:10.605Z,10.65
2024-01-11T07:16:16.554Z,9.43
2024-01-11T07:17:23.713Z,9.83
2024-01-11T07:18:29.254Z,10.25
2024-01-11T07:19:37.689Z,9.18
2024-01-11T07:20:43.132Z,8.95
2024-01-11T07:21:50.388Z,9.40
2024-01-11T07:22:55.685Z,9.55
2024-01-11T07:24:02.402Z,9.98
2024-01-11T07:25:08.214Z,9.63
2024-01-11T07:26:15.616Z,10.02
2024-01-11T07:27:21.571Z,10.60
2024-01-11T07:28:28.685Z,9.63
2024-01-11T07:29:34.117Z,9.27
2024-01-11T07:30:41.016Z,8.98
2024-01-11T07:31:46.376Z,8.93
2024-01-11T07:32:54.231Z,8.88
2024-01-11T07:33:59.690Z,9.45
2024-01-11T07:35:13.101Z,9.02
2024-01-11T07:36:20.613Z,9.65
2024-01-11T07:37:28.264Z,9.02
2024-01-11T07:38:33.600Z,9.53
2024-01-11T07:39:40.741Z,10.73
2024-01-11T07:40:46.221Z,10.52
2024-01-11T07:41:53.034Z,10.07
2024-01-11T07:42:58.372Z,10.38
2024-01-11T07:44:05.122Z,10.38
2024-01-11T07:45:12.781Z,9.55
2024-01-11T07:46:19.499Z,9.80
2024-01-11T07:47:25.050Z,10.45
2024-01-11T07:48:31.774Z,9.52
2024-01-11T07:49:37.267Z,10.43
2024-01-11T07:50:45.786Z,9.73
2024-01-11T07:51:51.581Z,9.88
2024-01-11T07:52:58.916Z,9.05
2024-01-11T07:54:05.145Z,9.75
2024-01-11T07:55:14.133Z,9.13
2024-01-11T07:56:20.147Z,9.43
2024-01-11T07:57:27.090Z,9.95
2024-01-11T07:58:32.477Z,9.48
2024-01-11T07:59:40.002Z,8.98
2024-01-11T08:00:45.420Z,8.27
2024-01-11T08:01:53.191Z,8.67
2024-01-11T08:02:58.707Z,9.80
2024-01-11T08:04:05.434Z,9.10
2024-01-11T08:05:11.482Z,9.85
2024-01-11T08:06:19.875Z,9.82
2024-01-11T08:07:25.269Z,9.70
2024-01-11T08:08:32.105Z,9.18
2024-01-11T08:09:37.770Z,8.90
2024-01-11T08:10:44.441Z,9.18
2024-01-11T08:11:51.367Z,9.10
2024-01-11T08:13:01.954Z,8.67
2024-01-11T08:14:08.067Z,9.15
2024-01-11T08:15:15.481Z,8.80
2024-01-11T08:16:21.133Z,9.15
2024-01-11T08:17:27.934Z,9.68
2024-01-11T08:18:33.409Z,9.95
2024-01-11T08:19:40.065Z,9.52
2024-01-11T08:20:45.421Z,10.25
2024-01-11T08:21:53.740Z,9.13
2024-01-11T08:22:59.562Z,8.97
2024-01-11T08:24:06.969Z,8.67
2024-01-11T08:25:12.546Z,9.07
2024-01-11T08:26:18.332Z,9.50
2024-01-11T08:27:25.053Z,10.80
2024-01-11T08:28:30.365Z,10.57
2024-01-11T08:29:37.669Z,9.20
2024-01-11T08:30:46.765Z,9.90
2024-01-11T08:31:53.554Z,9.75
2024-01-11T08:32:58.939Z,9.18
2024-01-11T08:34:05.892Z,8.93
2024-01-11T08:35:14.319Z,9.83
2024-01-11T08:36:21.301Z,8.82
2024-01-11T08:37:28.334Z,10.02
2024-01-11T08:38:35.013Z,9.30
2024-01-11T08:39:41.295Z,9.73
2024-01-11T08:40:48.785Z,9.55
2024-01-11T08:41:54.699Z,9.27
2024-01-11T08:43:01.363Z,8.73
2024-01-11T08:44:09.809Z,8.57
2024-01-11T08:45:20.320Z,9.02
2024-01-11T08:46:29.275Z,8.77
2024-01-11T08:47:36.019Z,9.55
2024-01-11T08:48:41.764Z,9.05
2024-01-11T08:49:48.659Z,9.23
2024-01-11T08:50:54.120Z,9.27
2024-01-11T08:52:00.784Z,8.63
2024-01-11T08:53:07.934Z,9.70
2024-01-11T08:54:15.028Z,9.27
2024-01-11T08:55:20.439Z,10.13
2024-01-11T08:56:27.304Z,9.47
2024-01-11T08:57:32.557Z,9.43
2024-01-11T08:58:39.218Z,9.65
2024-01-11T08:59:44.679Z,9.38
2024-01-11T09:00:51.468Z,9.43
2024-01-11T09:02:06.259Z,10.02
2024-01-11T09:03:22.101Z,9.38
2024-01-11T09:04:27.513Z,9.77
2024-01-11T09:05:34.537Z,9.63
2024-01-11T09:06:39.822Z,9.02
2024-01-11T09:07:46.832Z,10.03
2024-01-11T09:08:54.894Z,8.50
2024-01-11T09:10:01.549Z,9.55
2024-01-11T09:11:07.230Z,9.48
2024-01-11T09:12:13.955Z,9.00
2024-01-11T09:13:19.174Z,9.07
2024-01-11T09:14:25.857Z,9.13
2024-01-11T09:15:31.250Z,8.13
2024-01-11T09:16:36.595Z,8.52
2024-01-11T09:17:43.214Z,8.10
2024-01-11T09:18:48.629Z,9.57
2024-01-11T09:19:55.791Z,9.13
2024-01-11T09:21:01.137Z,9.25
2024-01-11T09:22:08.044Z,9.40
2024-01-11T09:23:13.455Z,10.07
2024-01-11T09:24:21.961Z,8.93
2024-01-11T09:25:27.254Z,8.63
2024-01-11T09:26:34.058Z,8.52
2024-01-11T09:27:39.571Z,10.43
2024-01-11T09:28:48.353Z,8.10
2024-01-11T09:29:56.873Z,8.47
2024-01-11T09:31:05.833Z,8.60
2024-01-11T09:32:11.408Z,8.38
2024-01-11T09:33:19.143Z,8.40
2024-01-11T09:34:24.788Z,9.95
2024-01-11T09:35:31.564Z,9.55
2024-01-11T09:36:37.028Z,8.88
2024-01-11T09:37:43.923Z,8.43
2024-01-11T09:38:52.966Z,9.00
2024-01-11T09:40:03.287Z,9.57
2024-01-11T09:41:13.999Z,8.87
2024-01-11T09:42:23.821Z,10.30
2024-01-11T09:43:29.890Z,8.10
2024-01-11T09:44:36.801Z,9.93
2024-01-11T09:45:42.244Z,8.90
2024-01-11T09:46:49.709Z,10.18
2024-01-11T09:47:57.165Z,11.38
2024-01-11T09:49:04.282Z,9.18
2024-01-11T09:50:11.163Z,9.85
2024-01-11T09:51:18.309Z,8.80
2024-01-11T09:52:24.491Z,7.57
2024-01-11T09:53:32.043Z,9.07
2024-01-11T09:54:37.453Z,8.93
2024-01-11T09:55:46.001Z,9.45
2024-01-11T09:56:52.835Z,10.43
2024-01-11T09:58:02.271Z,10.55
2024-01-11T09:59:13.371Z,13.75
2024-01-11T10:00:24.944Z,13.80
2024-01-11T10:01:30.375Z,14.20
2024-01-11T10:02:37.245Z,11.25
2024-01-11T10:03:44.493Z,9.47
2024-01-11T10:04:51.454Z,10.80
2024-01-11T10:06:00.721Z,11.52
2024-01-11T10:07:09.662Z,11.27
2024-01-11T10:08:15.603Z,11.60
2024-01-11T10:09:22.569Z,12.25
2024-01-11T10:10:28.321Z,12.25
2024-01-11T10:11:37.146Z,12.25
2024-01-11T10:12:43.478Z,11.68
2024-01-11T10:13:50.158Z,11.93
2024-01-11T10:14:55.696Z,11.37
2024-01-11T10:16:17.904Z,10.83
2024-01-11T10:17:25.627Z,11.27
2024-01-11T10:18:33.011Z,10.10
2024-01-11T10:19:38.765Z,11.55
2024-01-11T10:20:45.758Z,11.90
2024-01-11T10:21:51.560Z,10.60
2024-01-11T10:22:58.375Z,12.80
2024-01-11T10:24:06.940Z,12.88
2024-01-11T10:25:15.339Z,14.25
2024-01-11T10:26:21.649Z,12.73
2024-01-11T10:27:33.175Z,12.97
2024-01-11T10:28:40.192Z,12.18
2024-01-11T10:29:47.658Z,14.95
2024-01-11T10:30:55.865Z,24.58
2024-01-11T10:32:01.396Z,36.50
2024-01-11T10:33:08.788Z,120.53
2024-01-11T10:34:14.480Z,52.40
2024-01-11T10:35:20.960Z,52.28
2024-01-11T10:36:28.203Z,32.33
2024-01-11T10:37:35.327Z,28.87
2024-01-11T10:38:43.661Z,28.83
2024-01-11T10:41:25.865Z,32.78
2024-01-11T10:42:42.999Z,15.57
2024-01-11T10:43:51.172Z,18.48
2024-01-11T10:44:59.914Z,13.73
2024-01-11T10:46:09.249Z,13.30
2024-01-11T10:47:14.943Z,12.35
2024-01-11T10:48:21.964Z,13.13
2024-01-11T10:49:29.628Z,12.23
2024-01-11T10:50:40.464Z,12.70
2024-01-11T10:51:49.041Z,15.10
2024-01-11T10:53:15.367Z,12.27
2024-01-11T10:54:21.196Z,11.60
2024-01-11T10:55:28.172Z,12.25
2024-01-11T10:56:34.572Z,13.07
2024-01-11T10:57:43.325Z,12.38
2024-01-11T10:58:49.440Z,12.05
2024-01-11T10:59:57.618Z,13.30
2024-01-11T11:01:03.521Z,11.60
2024-01-11T11:02:15.447Z,11.17
2024-01-11T11:03:22.358Z,12.60
2024-01-11T11:04:30.186Z,12.68
2024-01-11T11:05:38.030Z,12.55
2024-01-11T11:06:45.003Z,13.23
2024-01-11T11:07:51.603Z,12.73
2024-01-11T11:08:58.624Z,12.35
2024-01-11T11:10:04.392Z,12.82
2024-01-11T11:11:11.273Z,12.48
2024-01-11T11:12:17.219Z,13.77
2024-01-11T11:13:26.439Z,13.13
2024-01-11T11:14:32.386Z,13.20
2024-01-11T11:15:41.116Z,14.40
2024-01-11T11:16:46.711Z,14.73
2024-01-11T11:17:55.790Z,14.57
2024-01-11T11:19:01.502Z,13.65
2024-01-11T11:20:09.686Z,13.48
2024-01-11T11:21:15.438Z,15.57
2024-01-11T11:22:22.370Z,14.90
2024-01-11T11:23:27.928Z,16.13
2024-01-11T11:24:34.695Z,15.77
2024-01-11T11:25:41.699Z,14.73
2024-01-11T11:26:48.740Z,15.45
2024-01-11T11:27:55.202Z,14.68
2024-01-11T11:29:03.546Z,15.90
2024-01-11T11:30:10.429Z,15.43
2024-01-11T11:31:17.232Z,17.58
2024-01-11T11:32:43.456Z,19.63
2024-01-11T11:33:50.274Z,20.60
2024-01-11T11:34:56.328Z,19.63
2024-01-11T11:36:03.523Z,18.37
2024-01-11T11:37:26.557Z,19.95
2024-01-11T11:38:33.993Z,18.75
2024-01-11T11:39:39.650Z,17.73
2024-01-11T11:40:47.646Z,19.63
2024-01-11T11:41:55.277Z,20.17
2024-01-11T11:43:00.655Z,20.80
2024-01-11T11:44:08.707Z,22.27
2024-01-11T11:45:15.684Z,21.80
2024-01-11T11:46:22.239Z,23.53
2024-01-11T11:47:29.463Z,22.38
2024-01-11T11:48:58.204Z,21.33
2024-01-11T11:50:12.478Z,22.02
2024-01-11T11:51:20.568Z,18.58
2024-01-11T11:52:26.436Z,20.20
2024-01-11T11:53:36.257Z,22.15
2024-01-11T11:54:41.801Z,19.85
2024-01-11T11:55:48.444Z,20.25
2024-01-11T11:56:55.937Z,15.88
2024-01-11T11:58:03.412Z,18.27
2024-01-11T11:59:10.889Z,17.63
2024-01-11T12:00:19.237Z,16.83
2024-01-11T12:01:25.041Z,17.98
2024-01-11T12:02:32.335Z,15.57
2024-01-11T12:03:39.868Z,17.50
2024-01-11T12:04:46.535Z,18.85
2024-01-11T12:05:52.306Z,17.17
2024-01-11T12:06:59.592Z,15.93
2024-01-11T12:08:04.984Z,15.60
2024-01-11T12:09:12.161Z,17.40
2024-01-11T12:10:18.211Z,17.50
2024-01-11T12:11:25.425Z,16.58
2024-01-11T12:12:31.328Z,17.88
2024-01-11T12:13:38.611Z,15.85
2024-01-11T12:14:45.900Z,17.15
2024-01-11T12:15:52.664Z,18.13
2024-01-11T12:17:00.485Z,16.73
2024-01-11T12:18:07.531Z,17.88
2024-01-11T12:19:13.050Z,17.45
2024-01-11T12:20:22.742Z,16.83
2024-01-11T12:21:29.594Z,18.02
2024-01-11T12:22:36.351Z,16.73
2024-01-11T12:23:42.613Z,16.40
2024-01-11T12:24:49.229Z,18.63
2024-01-11T12:25:54.590Z,17.77
2024-01-11T12:27:01.873Z,16.75
2024-01-11T12:28:07.832Z,16.35
2024-01-11T12:29:15.682Z,17.73
2024-01-11T12:30:23.105Z,15.77
2024-01-11T12:31:29.926Z,15.30
2024-01-11T12:32:35.593Z,15.00
2024-01-11T12:33:43.780Z,14.43
2024-01-11T12:34:49.668Z,16.95
2024-01-11T12:35:56.413Z,15.40
2024-01-11T12:37:04.356Z,14.75
2024-01-11T12:38:12.039Z,14.10
2024-01-11T12:39:17.834Z,15.52
2024-01-11T12:40:24.530Z,13.55
2024-01-11T12:41:29.988Z,14.88
2024-01-11T12:42:37.467Z,14.23
2024-01-11T12:43:42.849Z,14.35
2024-01-11T12:44:55.124Z,14.55
2024-01-11T12:46:02.486Z,14.00
2024-01-11T12:47:09.996Z,14.20
2024-01-11T12:48:17.100Z,13.27
2024-01-11T12:49:24.365Z,13.40
2024-01-11T12:50:30.392Z,14.18
2024-01-11T12:51:37.047Z,13.98
2024-01-11T12:52:42.373Z,13.43
2024-01-11T12:53:51.407Z,13.17
2024-01-11T12:54:56.824Z,12.25
2024-01-11T12:56:13.089Z,12.35
2024-01-11T12:57:23.027Z,13.13
2024-01-11T12:58:29.916Z,11.18
2024-01-11T12:59:35.179Z,11.90
2024-01-11T13:00:42.829Z,11.85
2024-01-11T13:01:49.896Z,11.38
2024-01-11T13:02:56.707Z,10.80
2024-01-11T13:04:01.997Z,10.80
2024-01-11T13:05:09.985Z,11.43
2024-01-11T13:06:16.167Z,13.45
2024-01-11T13:07:42.854Z,11.93
2024-01-11T13:08:48.237Z,11.32
2024-01-11T13:09:54.829Z,10.38
2024-01-11T13:11:00.100Z,11.15
2024-01-11T13:12:07.238Z,11.63
2024-01-11T13:13:12.511Z,11.23
2024-01-11T13:14:21.754Z,10.77
2024-01-11T13:15:27.213Z,10.52
2024-01-11T13:16:34.160Z,9.67
2024-01-11T13:17:41.912Z,10.57
2024-01-11T13:18:50.619Z,11.20
2024-01-11T13:19:57.329Z,10.73
2024-01-11T13:21:05.793Z,11.00
2024-01-11T13:22:12.029Z,10.93
2024-01-11T13:23:24.581Z,10.73
2024-01-11T13:24:30.293Z,11.05
2024-01-11T13:25:37.268Z,11.50
2024-01-11T13:26:43.641Z,19.03
2024-01-11T13:27:51.222Z,24.15
2024-01-11T13:28:57.031Z,22.17
2024-01-11T13:30:04.444Z,20.53
2024-01-11T13:31:13.108Z,14.98
2024-01-11T13:32:25.034Z,15.63
2024-01-11T13:33:34.523Z,13.65
2024-01-11T13:34:46.570Z,14.43
2024-01-11T13:35:54.259Z,14.85
2024-01-11T13:37:02.269Z,15.73
2024-01-11T13:38:13.924Z,20.08
2024-01-11T13:39:23.390Z,18.00
2024-01-11T13:40:31.405Z,18.58
2024-01-11T13:41:37.340Z,19.07
2024-01-11T13:42:46.253Z,17.63
2024-01-11T13:43:52.820Z,18.33
2024-01-11T13:45:02.888Z,16.42
2024-01-11T13:46:09.721Z,18.45
2024-01-11T13:47:18.539Z,15.75
2024-01-11T13:48:24.539Z,13.48
2024-01-11T13:49:34.043Z,14.75
2024-01-11T13:50:40.272Z,14.15
2024-01-11T13:51:53.985Z,13.60
2024-01-11T13:53:07.284Z,12.70
2024-01-11T13:54:18.077Z,15.07
2024-01-11T13:55:25.141Z,15.20
2024-01-11T13:56:32.796Z,11.98
2024-01-11T13:57:39.555Z,13.43
2024-01-11T13:58:47.593Z,12.75
2024-01-11T13:59:56.212Z,11.27
2024-01-11T14:01:05.369Z,12.80
2024-01-11T14:02:11.862Z,11.63
2024-01-11T14:03:20.045Z,11.85
2024-01-11T14:04:27.506Z,11.43
2024-01-11T14:05:37.528Z,11.88
2024-01-11T14:06:43.966Z,10.85
2024-01-11T14:08:12.145Z,10.00
2024-01-11T14:09:37.848Z,10.32
2024-01-11T14:10:45.960Z,10.63
2024-01-11T14:11:52.423Z,10.95
2024-01-11T14:13:00.284Z,10.52
2024-01-11T14:14:06.555Z,11.40
2024-01-11T14:15:27.904Z,10.63
2024-01-11T14:16:34.140Z,10.77
2024-01-11T14:17:44.312Z,12.15
2024-01-11T14:18:52.313Z,11.95
2024-01-11T14:20:03.689Z,11.00
2024-01-11T14:21:14.023Z,13.65
2024-01-11T14:22:24.220Z,13.80
2024-01-11T14:23:32.739Z,12.32
2024-01-11T14:24:39.511Z,17.30
2024-01-11T14:25:47.834Z,22.05
2024-01-11T14:26:56.717Z,22.45
2024-01-11T14:28:04.144Z,17.00
2024-01-11T14:29:11.554Z,15.27
2024-01-11T14:30:19.552Z,11.73
2024-01-11T14:31:26.558Z,13.07